Terminal Aerodrome Forecast
Issued by NWS Memphis, TN

Home | Current Version | Previous Version | Text Only | Print | Product List | Glossary On
Versions: 1 2 3 4 5 6 7 8 9 10 11 12 13 14 15 16 17 18 19 20 21 22 23
000
FTUS44 KMEG 052320
TAFMKL
TAF
KMKL 052320Z 0600/0624 20006KT P6SM VCTS BKN035CB
     FM060200 00000KT P6SM SCT040 SCT250
     FM060500 00000KT 5SM BR SCT250
      TEMPO 0605/0609 2SM BR
     FM060900 00000KT 2SM BR SCT003
      TEMPO 0609/0613 1/2SM FG VV002
     FM061400 22006KT P6SM SCT015
     FM061600 23008KT P6SM SCT025 BKN035
     FM061800 23008KT P6SM VCTS SCT025CB BKN035=

USA.gov is the U.S. government's official web portal to all federal, state and local government web resources and services.